Time;durP1;ratioP1;P1;durP2;ratioP2;P2;SDS_P1;SDS_P2;PMS_P1;PMS_P2;Temp;Humidity;BMP_temperature;BMP_pressure;BME280_temperature;BME280_humidity;BME280_pressure;Samples;Min_cycle;Max_cycle;Signal;HPM_P1;HPM_P2
2021/05/03 00:00:54;;;;;;;9.35;4.10;;;;;;;;;;5092652;28;20024;-85
2021/05/03 00:03:20;;;;;;;8.90;4.40;;;;;;;;;;5070752;28;20056;-85
2021/05/03 00:05:48;;;;;;;8.05;4.35;;;;;;;;;;5082828;28;20017;-85
2021/05/03 00:08:13;;;;;;;8.65;3.97;;;;;;;;;;5065200;28;20073;-85
2021/05/03 00:10:39;;;;;;;6.35;3.92;;;;;;;;;;5085582;28;20047;-86
2021/05/03 00:13:04;;;;;;;5.97;4.05;;;;;;;;;;5058578;28;20032;-87
2021/05/03 00:15:29;;;;;;;8.05;4.38;;;;;;;;;;5060375;28;20539;-87
2021/05/03 00:17:54;;;;;;;15.10;5.55;;;;;;;;;;5059145;28;20024;-87
2021/05/03 00:20:20;;;;;;;7.07;3.70;;;;;;;;;;5055717;28;20032;-87
2021/05/03 00:22:45;;;;;;;11.77;4.30;;;;;;;;;;5052708;28;20090;-87
2021/05/03 00:25:10;;;;;;;6.35;4.25;;;;;;;;;;5076798;28;20025;-85
2021/05/03 00:27:36;;;;;;;10.68;4.85;;;;;;;;;;5065652;28;20028;-84
2021/05/03 00:30:02;;;;;;;13.15;4.20;;;;;;;;;;5064866;28;20088;-86
2021/05/03 00:32:28;;;;;;;11.98;4.45;;;;;;;;;;5057661;28;20075;-84
2021/05/03 00:34:53;;;;;;;12.15;4.30;;;;;;;;;;5071242;28;20024;-84
2021/05/03 00:37:18;;;;;;;14.05;4.38;;;;;;;;;;5057287;28;20047;-84
2021/05/03 00:39:43;;;;;;;9.75;4.28;;;;;;;;;;5084394;28;20028;-85
2021/05/03 00:42:08;;;;;;;9.82;4.13;;;;;;;;;;5076610;28;20439;-86
2021/05/03 00:44:34;;;;;;;7.03;4.25;;;;;;;;;;5070661;28;20071;-85
2021/05/03 00:46:59;;;;;;;9.10;4.82;;;;;;;;;;5071308;28;20387;-86
2021/05/03 00:49:25;;;;;;;10.63;4.65;;;;;;;;;;5051959;28;20021;-85
2021/05/03 00:51:51;;;;;;;10.27;4.25;;;;;;;;;;5071908;28;20024;-85
2021/05/03 00:54:16;;;;;;;7.53;4.47;;;;;;;;;;5050030;28;20024;-86
2021/05/03 00:56:41;;;;;;;8.73;4.38;;;;;;;;;;5045737;28;20323;-85
2021/05/03 00:59:07;;;;;;;8.40;4.32;;;;;;;;;;5052505;28;20021;-85
2021/05/03 01:01:32;;;;;;;13.30;4.53;;;;;;;;;;5052955;28;20075;-85
2021/05/03 01:03:58;;;;;;;11.00;4.60;;;;;;;;;;5063887;28;20008;-85
2021/05/03 01:06:23;;;;;;;9.30;4.32;;;;;;;;;;5081818;28;20050;-84
2021/05/03 01:08:49;;;;;;;8.95;4.30;;;;;;;;;;5064404;28;20150;-85
2021/05/03 01:11:14;;;;;;;7.63;4.03;;;;;;;;;;5078911;28;20028;-86
2021/05/03 01:13:40;;;;;;;10.35;4.30;;;;;;;;;;5081654;28;20029;-86
2021/05/03 01:16:05;;;;;;;7.72;4.20;;;;;;;;;;5064360;28;20016;-87
2021/05/03 01:18:35;;;;;;;9.15;4.72;;;;;;;;;;5085824;28;20045;-84
2021/05/03 01:21:00;;;;;;;9.97;4.67;;;;;;;;;;5068870;28;20047;-85
2021/05/03 01:23:25;;;;;;;7.57;4.47;;;;;;;;;;5060607;28;20021;-86
2021/05/03 01:25:50;;;;;;;7.95;4.22;;;;;;;;;;5074089;28;20078;-87
2021/05/03 01:28:16;;;;;;;7.82;3.88;;;;;;;;;;5054604;28;20043;-87
2021/05/03 01:30:43;;;;;;;8.82;4.05;;;;;;;;;;5054248;28;20028;-86
2021/05/03 01:33:09;;;;;;;10.63;4.75;;;;;;;;;;5055474;28;20021;-86
2021/05/03 01:35:35;;;;;;;9.02;5.13;;;;;;;;;;5053394;28;20027;-86
2021/05/03 01:38:01;;;;;;;9.55;4.32;;;;;;;;;;5054524;28;20021;-86
2021/05/03 01:40:27;;;;;;;6.93;4.18;;;;;;;;;;5056103;28;20046;-86
2021/05/03 01:42:53;;;;;;;7.15;3.90;;;;;;;;;;5056102;28;20039;-86
2021/05/03 01:45:20;;;;;;;14.85;4.50;;;;;;;;;;5074563;28;20048;-86
2021/05/03 01:47:45;;;;;;;10.52;4.68;;;;;;;;;;5054206;28;20028;-86
2021/05/03 01:50:11;;;;;;;10.00;4.38;;;;;;;;;;5054838;28;20396;-86
2021/05/03 01:52:40;;;;;;;9.27;3.97;;;;;;;;;;5074387;28;20042;-84
2021/05/03 01:55:05;;;;;;;9.52;4.90;;;;;;;;;;5037985;28;20040;-84
2021/05/03 01:57:31;;;;;;;14.90;4.63;;;;;;;;;;5055639;28;20024;-83
2021/05/03 01:59:56;;;;;;;13.85;4.53;;;;;;;;;;5074749;28;20437;-85
2021/05/03 02:02:22;;;;;;;9.25;4.60;;;;;;;;;;5056918;28;20029;-85
2021/05/03 02:04:47;;;;;;;8.52;3.85;;;;;;;;;;5063739;28;20016;-85
2021/05/03 02:07:16;;;;;;;9.20;4.60;;;;;;;;;;5074591;28;20028;-85
2021/05/03 02:09:42;;;;;;;10.40;4.22;;;;;;;;;;5074472;28;20021;-85
2021/05/03 02:12:07;;;;;;;10.23;4.70;;;;;;;;;;5076065;28;20016;-84
2021/05/03 02:14:32;;;;;;;9.20;4.55;;;;;;;;;;5093031;28;20051;-85
2021/05/03 02:16:57;;;;;;;11.88;4.50;;;;;;;;;;5091461;28;20074;-85
2021/05/03 02:19:23;;;;;;;15.38;4.30;;;;;;;;;;5075193;28;20028;-85
2021/05/03 02:21:48;;;;;;;9.13;4.03;;;;;;;;;;5073398;28;20016;-85
2021/05/03 02:24:13;;;;;;;10.60;4.40;;;;;;;;;;5073425;28;20024;-85
2021/05/03 02:26:38;;;;;;;7.95;3.90;;;;;;;;;;5057797;28;20020;-85
2021/05/03 02:29:03;;;;;;;9.57;4.38;;;;;;;;;;5053421;28;20400;-85
2021/05/03 02:31:29;;;;;;;10.27;4.72;;;;;;;;;;5053023;28;20082;-85
2021/05/03 02:33:54;;;;;;;9.07;4.70;;;;;;;;;;5050154;28;20388;-85
2021/05/03 02:36:19;;;;;;;8.27;4.47;;;;;;;;;;5053754;28;20365;-85
2021/05/03 02:38:44;;;;;;;15.27;4.30;;;;;;;;;;5052962;28;20056;-85
2021/05/03 02:41:10;;;;;;;7.63;4.82;;;;;;;;;;5054709;28;20024;-85
2021/05/03 02:43:35;;;;;;;11.20;4.88;;;;;;;;;;5052397;28;20027;-84
2021/05/03 02:46:00;;;;;;;8.52;4.45;;;;;;;;;;5048755;28;20020;-85
2021/05/03 02:48:25;;;;;;;9.20;4.25;;;;;;;;;;5059604;28;20044;-84
2021/05/03 02:50:50;;;;;;;12.27;6.53;;;;;;;;;;5055860;28;20044;-85
2021/05/03 02:53:16;;;;;;;9.73;4.30;;;;;;;;;;5045049;28;20081;-84
2021/05/03 02:55:41;;;;;;;8.10;4.28;;;;;;;;;;5046107;28;20013;-85
2021/05/03 02:58:06;;;;;;;9.80;4.82;;;;;;;;;;5053217;28;20053;-86
2021/05/03 03:00:33;;;;;;;18.20;6.10;;;;;;;;;;5040901;28;20017;-84
2021/05/03 03:02:59;;;;;;;12.32;4.78;;;;;;;;;;5041446;28;20021;-85
2021/05/03 03:05:24;;;;;;;6.55;4.15;;;;;;;;;;5053587;28;20093;-85
2021/05/03 03:07:50;;;;;;;10.98;5.57;;;;;;;;;;5070938;28;20044;-85
2021/05/03 03:10:16;;;;;;;8.27;4.95;;;;;;;;;;5068961;28;20484;-85
2021/05/03 03:12:41;;;;;;;9.80;5.43;;;;;;;;;;5070385;28;20021;-84
2021/05/03 03:15:11;;;;;;;9.25;4.57;;;;;;;;;;5052621;28;20024;-85
2021/05/03 03:17:36;;;;;;;10.80;5.25;;;;;;;;;;5053678;28;20063;-85
2021/05/03 03:20:02;;;;;;;7.07;4.55;;;;;;;;;;5052529;28;20056;-85
2021/05/03 03:22:27;;;;;;;10.55;5.05;;;;;;;;;;5071089;28;20017;-85
2021/05/03 03:24:52;;;;;;;10.38;5.10;;;;;;;;;;5064429;28;20392;-86
2021/05/03 03:27:18;;;;;;;8.73;4.80;;;;;;;;;;5057705;28;20028;-86
2021/05/03 03:29:43;;;;;;;7.95;4.70;;;;;;;;;;5052654;28;20024;-85
2021/05/03 03:32:08;;;;;;;9.40;4.93;;;;;;;;;;5070185;28;20025;-86
2021/05/03 03:34:33;;;;;;;10.63;4.80;;;;;;;;;;5050035;28;20484;-85
2021/05/03 03:36:59;;;;;;;12.13;4.47;;;;;;;;;;5048787;28;20122;-86
2021/05/03 03:39:24;;;;;;;9.57;4.13;;;;;;;;;;5053327;28;20054;-85
2021/05/03 03:41:49;;;;;;;13.63;4.80;;;;;;;;;;5050349;28;20013;-86
2021/05/03 03:44:14;;;;;;;11.18;4.57;;;;;;;;;;5052594;28;20082;-86
2021/05/03 03:46:39;;;;;;;14.32;4.95;;;;;;;;;;5054967;28;20066;-86
2021/05/03 03:49:05;;;;;;;11.52;4.75;;;;;;;;;;5070871;28;20099;-85
2021/05/03 03:51:30;;;;;;;9.43;4.78;;;;;;;;;;5058369;28;20468;-86
2021/05/03 03:53:55;;;;;;;11.48;4.90;;;;;;;;;;5055014;28;20029;-85
2021/05/03 03:56:22;;;;;;;11.02;4.50;;;;;;;;;;5044976;28;20036;-85
2021/05/03 03:58:47;;;;;;;9.90;4.50;;;;;;;;;;5046589;28;20498;-85
2021/05/03 04:01:13;;;;;;;10.70;4.70;;;;;;;;;;5071176;28;20100;-86
2021/05/03 04:03:50;;;;;;;10.93;5.50;;;;;;;;;;5055384;28;20055;-85
2021/05/03 04:24:26;;;;;;;14.27;5.90;;;;;;;;;;5069224;28;20116;-86
2021/05/03 04:26:51;;;;;;;16.17;6.32;;;;;;;;;;5067485;28;20028;-86
2021/05/03 04:29:16;;;;;;;11.80;5.60;;;;;;;;;;5051104;28;20021;-86
2021/05/03 04:31:42;;;;;;;15.70;7.65;;;;;;;;;;5049269;28;21586;-85
2021/05/03 04:34:07;;;;;;;10.45;5.60;;;;;;;;;;5069566;28;20443;-86
2021/05/03 04:36:32;;;;;;;10.73;5.68;;;;;;;;;;5069130;28;20052;-86
2021/05/03 04:38:57;;;;;;;13.80;5.68;;;;;;;;;;5051069;28;20051;-86
2021/05/03 04:41:23;;;;;;;11.32;5.55;;;;;;;;;;5068027;28;20020;-86
2021/05/03 04:43:48;;;;;;;12.60;6.60;;;;;;;;;;5051466;28;20025;-86
2021/05/03 04:46:16;;;;;;;14.00;6.38;;;;;;;;;;5048447;28;20031;-86
2021/05/03 04:48:42;;;;;;;12.77;5.85;;;;;;;;;;5051177;28;20108;-87
2021/05/03 04:51:07;;;;;;;10.82;5.95;;;;;;;;;;5066874;28;20032;-86
2021/05/03 04:53:32;;;;;;;11.32;6.55;;;;;;;;;;5038922;28;20021;-87
2021/05/03 04:55:57;;;;;;;17.00;7.70;;;;;;;;;;5048765;28;20032;-86
2021/05/03 04:58:22;;;;;;;20.98;4.70;;;;;;;;;;5045624;28;20051;-86
2021/05/03 05:00:48;;;;;;;10.77;4.15;;;;;;;;;;5042562;28;20036;-87
2021/05/03 05:03:13;;;;;;;12.48;5.93;;;;;;;;;;5048741;28;20055;-86
2021/05/03 05:05:38;;;;;;;12.82;5.43;;;;;;;;;;5032813;28;20480;-87
2021/05/03 05:08:04;;;;;;;20.52;8.60;;;;;;;;;;5066875;28;20130;-86
2021/05/03 05:10:29;;;;;;;16.25;8.63;;;;;;;;;;5044370;28;20092;-87
2021/05/03 05:12:54;;;;;;;12.15;4.93;;;;;;;;;;5043518;28;20024;-88
2021/05/03 05:15:20;;;;;;;10.45;5.88;;;;;;;;;;5042766;28;20033;-87
2021/05/03 05:17:46;;;;;;;12.40;5.13;;;;;;;;;;5065287;28;20387;-88
2021/05/03 05:20:11;;;;;;;16.35;7.65;;;;;;;;;;5065006;28;20428;-87
2021/05/03 05:22:37;;;;;;;10.77;5.22;;;;;;;;;;5047887;28;20124;-87
2021/05/03 05:25:02;;;;;;;7.95;4.93;;;;;;;;;;5065394;28;20028;-88
2021/05/03 05:27:27;;;;;;;12.55;7.32;;;;;;;;;;5062821;28;20077;-87
2021/05/03 05:29:53;;;;;;;22.98;8.07;;;;;;;;;;5051471;28;20017;-87
2021/05/03 05:32:21;;;;;;;19.52;8.52;;;;;;;;;;5052765;28;20070;-87
2021/05/03 05:34:47;;;;;;;10.68;5.63;;;;;;;;;;5069494;28;20027;-88
2021/05/03 05:37:12;;;;;;;11.55;6.43;;;;;;;;;;5052818;28;20028;-86
2021/05/03 05:39:37;;;;;;;12.38;7.55;;;;;;;;;;5057801;28;20104;-88
2021/05/03 05:42:03;;;;;;;9.73;5.28;;;;;;;;;;5054047;28;20476;-87
2021/05/03 05:44:28;;;;;;;10.48;5.35;;;;;;;;;;5049651;28;20028;-86
2021/05/03 05:46:54;;;;;;;12.98;7.60;;;;;;;;;;5048765;28;20082;-87
2021/05/03 05:49:20;;;;;;;14.63;7.22;;;;;;;;;;5047463;28;20067;-88
2021/05/03 05:51:45;;;;;;;11.52;5.32;;;;;;;;;;5054169;28;20737;-87
2021/05/03 05:54:10;;;;;;;15.50;8.15;;;;;;;;;;5052305;28;20052;-87
2021/05/03 05:56:36;;;;;;;9.70;5.35;;;;;;;;;;5056168;28;20047;-87
2021/05/03 05:59:01;;;;;;;11.05;3.97;;;;;;;;;;5072102;28;20024;-87
2021/05/03 06:01:27;;;;;;;8.85;4.22;;;;;;;;;;5053160;28;20028;-87
2021/05/03 06:03:53;;;;;;;13.30;6.97;;;;;;;;;;5052647;28;20035;-86
2021/05/03 06:06:18;;;;;;;15.05;8.93;;;;;;;;;;5052694;28;20016;-87
2021/05/03 06:08:43;;;;;;;15.77;8.70;;;;;;;;;;5053211;28;20111;-86
2021/05/03 06:11:08;;;;;;;10.13;4.88;;;;;;;;;;5054402;28;20021;-87
2021/05/03 06:13:34;;;;;;;9.43;5.20;;;;;;;;;;5054095;28;20036;-88
2021/05/03 06:16:00;;;;;;;10.02;5.53;;;;;;;;;;5069304;28;20035;-88
2021/05/03 06:18:26;;;;;;;11.63;6.63;;;;;;;;;;5051711;28;20043;-87
2021/05/03 06:20:51;;;;;;;14.82;7.28;;;;;;;;;;5053853;28;20424;-87
2021/05/03 06:23:19;;;;;;;9.60;4.85;;;;;;;;;;5053973;28;20403;-86
2021/05/03 06:25:44;;;;;;;12.63;7.05;;;;;;;;;;5051256;28;20106;-86
2021/05/03 06:28:10;;;;;;;15.05;7.35;;;;;;;;;;5047082;28;20472;-87
2021/05/03 06:30:36;;;;;;;17.35;7.82;;;;;;;;;;5050279;28;20112;-86
2021/05/03 06:33:11;;;;;;;8.77;4.65;;;;;;;;;;5070016;28;20483;-90
2021/05/03 06:35:41;;;;;;;13.18;8.07;;;;;;;;;;5064802;28;20028;-86
2021/05/03 06:38:21;;;;;;;34.55;8.05;;;;;;;;;;5071451;28;20020;-85
2021/05/03 06:40:46;;;;;;;17.15;8.55;;;;;;;;;;5065909;28;20029;-87
2021/05/03 06:43:11;;;;;;;14.85;9.35;;;;;;;;;;5035519;28;20033;-87
2021/05/03 06:45:37;;;;;;;12.20;6.45;;;;;;;;;;5047421;28;20024;-87
2021/05/03 06:48:03;;;;;;;12.77;6.82;;;;;;;;;;5046588;28;20028;-88
2021/05/03 06:50:28;;;;;;;14.10;8.50;;;;;;;;;;5068628;28;20045;-85
2021/05/03 06:52:54;;;;;;;17.30;8.13;;;;;;;;;;5066463;28;20562;-85
2021/05/03 06:55:19;;;;;;;17.13;7.47;;;;;;;;;;5052643;28;20048;-85
2021/05/03 06:57:44;;;;;;;14.43;7.68;;;;;;;;;;5045383;28;20020;-85
2021/05/03 07:00:11;;;;;;;14.95;8.73;;;;;;;;;;5066362;28;20515;-86
2021/05/03 07:02:37;;;;;;;16.80;8.75;;;;;;;;;;5053413;28;20398;-85
2021/05/03 07:05:03;;;;;;;27.73;8.20;;;;;;;;;;5052089;28;20016;-85
2021/05/03 07:07:28;;;;;;;18.05;7.20;;;;;;;;;;5070435;28;20031;-85
2021/05/03 07:09:53;;;;;;;13.32;7.30;;;;;;;;;;5051596;28;20511;-86
2021/05/03 07:12:21;;;;;;;24.50;8.48;;;;;;;;;;5051757;28;20153;-86
2021/05/03 07:14:47;;;;;;;15.25;7.38;;;;;;;;;;5066735;28;20020;-85
2021/05/03 07:17:13;;;;;;;21.10;8.48;;;;;;;;;;5069433;28;20102;-84
2021/05/03 07:19:38;;;;;;;12.27;7.40;;;;;;;;;;5034822;28;20022;-86
2021/05/03 07:22:04;;;;;;;9.07;5.82;;;;;;;;;;5041803;28;20071;-87
2021/05/03 07:24:30;;;;;;;16.17;7.55;;;;;;;;;;5060153;28;20016;-86
2021/05/03 07:26:55;;;;;;;12.63;7.30;;;;;;;;;;5043653;28;20070;-86
2021/05/03 07:29:21;;;;;;;15.40;6.40;;;;;;;;;;5051310;28;20028;-85
2021/05/03 07:31:46;;;;;;;11.52;5.90;;;;;;;;;;5070404;28;20032;-85
2021/05/03 07:34:11;;;;;;;15.73;6.70;;;;;;;;;;5069810;28;20036;-86
2021/05/03 07:36:37;;;;;;;9.55;5.78;;;;;;;;;;5070491;28;20255;-86
2021/05/03 07:39:05;;;;;;;14.55;6.30;;;;;;;;;;5051352;28;20530;-86
2021/05/03 07:41:30;;;;;;;13.07;7.38;;;;;;;;;;5051526;28;20031;-86
2021/05/03 07:43:55;;;;;;;10.30;6.47;;;;;;;;;;5069723;28;20020;-86
2021/05/03 07:46:24;;;;;;;14.65;6.50;;;;;;;;;;5052107;28;20866;-86
2021/05/03 07:48:50;;;;;;;9.93;6.07;;;;;;;;;;5050900;28;20387;-86
2021/05/03 07:51:15;;;;;;;11.50;6.25;;;;;;;;;;5050218;28;20020;-85
2021/05/03 07:53:40;;;;;;;10.43;6.18;;;;;;;;;;5071928;28;20370;-87
2021/05/03 07:56:05;;;;;;;13.20;6.43;;;;;;;;;;5051976;28;20030;-87
2021/05/03 07:58:31;;;;;;;10.98;5.30;;;;;;;;;;5069049;28;20281;-87
2021/05/03 08:00:56;;;;;;;14.20;5.55;;;;;;;;;;5048858;28;20035;-86
2021/05/03 08:03:47;;;;;;;15.20;6.20;;;;;;;;;;5052357;28;20027;-85
2021/05/03 08:06:14;;;;;;;11.77;5.35;;;;;;;;;;5065544;28;20275;-86
2021/05/03 08:08:42;;;;;;;10.27;5.63;;;;;;;;;;5069629;28;20027;-87
2021/05/03 08:11:08;;;;;;;11.30;5.20;;;;;;;;;;5049383;28;20543;-86
2021/05/03 08:13:34;;;;;;;11.13;3.90;;;;;;;;;;5043474;28;20128;-86
2021/05/03 08:16:02;;;;;;;8.82;4.57;;;;;;;;;;5059985;28;20382;-86
2021/05/03 08:18:28;;;;;;;7.75;4.75;;;;;;;;;;5050973;28;20020;-86
2021/05/03 08:20:57;;;;;;;13.68;5.13;;;;;;;;;;5050419;28;20028;-87
2021/05/03 08:23:22;;;;;;;11.77;5.22;;;;;;;;;;5053202;28;20039;-87
2021/05/03 08:25:49;;;;;;;8.25;5.18;;;;;;;;;;5071004;28;20411;-86
2021/05/03 08:28:15;;;;;;;9.48;5.38;;;;;;;;;;5068187;28;20028;-86
2021/05/03 08:30:40;;;;;;;9.20;5.28;;;;;;;;;;5051923;28;20028;-86
2021/05/03 08:33:05;;;;;;;8.65;5.20;;;;;;;;;;5065681;28;20020;-86
2021/05/03 08:35:30;;;;;;;9.00;3.85;;;;;;;;;;5051430;28;20047;-87
2021/05/03 08:37:56;;;;;;;15.00;4.78;;;;;;;;;;5051860;28;20419;-85
2021/05/03 08:40:21;;;;;;;20.15;4.78;;;;;;;;;;5064275;28;20468;-87
2021/05/03 08:42:46;;;;;;;8.57;4.82;;;;;;;;;;5046641;28;20061;-87
2021/05/03 08:45:12;;;;;;;9.18;4.60;;;;;;;;;;5038430;28;20100;-85
2021/05/03 08:47:39;;;;;;;7.38;3.78;;;;;;;;;;5070368;28;20024;-86
2021/05/03 08:52:47;;;;;;;11.75;3.97;;;;;;;;;;5069233;28;20025;-86
2021/05/03 08:55:13;;;;;;;9.63;3.58;;;;;;;;;;5064959;28;20046;-86
2021/05/03 08:57:38;;;;;;;11.20;4.25;;;;;;;;;;5067973;28;20020;-86
2021/05/03 09:00:08;;;;;;;3.38;2.50;;;;;;;;;;5049123;28;20013;-86
2021/05/03 09:02:33;;;;;;;10.93;4.13;;;;;;;;;;5051635;28;20021;-87
2021/05/03 09:04:58;;;;;;;9.65;4.03;;;;;;;;;;5066970;28;20388;-84
2021/05/03 09:07:23;;;;;;;7.05;3.65;;;;;;;;;;5049703;28;20028;-85
2021/05/03 09:09:51;;;;;;;10.33;3.30;;;;;;;;;;5050833;28;20527;-84
2021/05/03 09:12:18;;;;;;;6.75;2.83;;;;;;;;;;5066043;28;20345;-84
2021/05/03 09:14:49;;;;;;;7.15;2.45;;;;;;;;;;5056170;28;20098;-84
2021/05/03 09:17:21;;;;;;;6.20;2.05;;;;;;;;;;5050898;28;20020;-84
2021/05/03 09:19:46;;;;;;;6.28;3.55;;;;;;;;;;5046230;28;20019;-85
2021/05/03 09:22:12;;;;;;;7.38;3.35;;;;;;;;;;5046465;28;20020;-84
2021/05/03 09:24:37;;;;;;;8.32;3.30;;;;;;;;;;5059173;28;20028;-84
2021/05/03 09:27:05;;;;;;;3.88;2.90;;;;;;;;;;5057620;28;20025;-85
2021/05/03 09:29:42;;;;;;;7.25;3.20;;;;;;;;;;5049648;28;20430;-85
2021/05/03 09:32:09;;;;;;;9.32;3.50;;;;;;;;;;5050542;28;20094;-84
2021/05/03 09:34:42;;;;;;;11.27;2.95;;;;;;;;;;5070446;28;20502;-84
2021/05/03 09:37:16;;;;;;;4.72;2.33;;;;;;;;;;5052768;28;20094;-85
2021/05/03 09:39:52;;;;;;;7.38;3.20;;;;;;;;;;5047471;28;20024;-84
2021/05/03 09:42:17;;;;;;;4.50;2.03;;;;;;;;;;5051864;28;20111;-84
2021/05/03 09:45:01;;;;;;;10.48;3.95;;;;;;;;;;5063790;28;20095;-84
2021/05/03 09:47:26;;;;;;;5.35;2.88;;;;;;;;;;5069714;28;20499;-85
2021/05/03 09:49:52;;;;;;;17.02;3.58;;;;;;;;;;5049943;28;20020;-84
2021/05/03 09:52:17;;;;;;;7.50;2.88;;;;;;;;;;5069180;28;20021;-83
2021/05/03 09:54:42;;;;;;;16.40;4.32;;;;;;;;;;5052256;28;20023;-84
2021/05/03 09:57:10;;;;;;;9.15;3.38;;;;;;;;;;5043583;28;20021;-84
2021/05/03 09:59:43;;;;;;;14.18;4.72;;;;;;;;;;5048773;28;20029;-84
2021/05/03 10:02:26;;;;;;;10.38;4.55;;;;;;;;;;5050295;28;20032;-84
2021/05/03 10:04:53;;;;;;;11.52;5.05;;;;;;;;;;5049593;28;20396;-85
2021/05/03 10:07:20;;;;;;;16.50;4.90;;;;;;;;;;5047299;28;20024;-85
2021/05/03 10:09:49;;;;;;;12.18;4.30;;;;;;;;;;5069260;28;20091;-85
2021/05/03 10:12:18;;;;;;;9.00;5.15;;;;;;;;;;5045784;28;20031;-85
2021/05/03 10:14:45;;;;;;;13.38;5.93;;;;;;;;;;5068645;28;20019;-84
2021/05/03 10:17:10;;;;;;;9.70;4.60;;;;;;;;;;5068158;28;20028;-84
2021/05/03 10:19:36;;;;;;;12.93;5.30;;;;;;;;;;5070343;28;20017;-85
2021/05/03 10:22:03;;;;;;;8.23;5.38;;;;;;;;;;5070531;28;20107;-84
2021/05/03 10:24:29;;;;;;;11.77;5.03;;;;;;;;;;5053379;28;20021;-83
2021/05/03 10:26:54;;;;;;;15.05;5.55;;;;;;;;;;5050177;28;20025;-85
2021/05/03 10:29:42;;;;;;;17.67;5.57;;;;;;;;;;5053487;28;20021;-85
2021/05/03 10:32:08;;;;;;;9.55;5.18;;;;;;;;;;5051201;28;20012;-85
2021/05/03 10:34:40;;;;;;;21.20;4.95;;;;;;;;;;5047675;28;20035;-85
2021/05/03 10:37:28;;;;;;;8.32;4.60;;;;;;;;;;5071419;28;20040;-86
2021/05/03 10:39:53;;;;;;;11.95;5.07;;;;;;;;;;5044691;28;20109;-82
2021/05/03 10:42:18;;;;;;;11.27;4.90;;;;;;;;;;5071383;28;20113;-82
2021/05/03 10:45:20;;;;;;;8.05;4.90;;;;;;;;;;5058087;28;20029;-83
2021/05/03 10:47:49;;;;;;;11.65;4.82;;;;;;;;;;4973624;28;20018;-86
2021/05/03 10:50:45;;;;;;;11.65;4.22;;;;;;;;;;5045176;28;20028;-84
2021/05/03 10:53:43;;;;;;;9.07;5.20;;;;;;;;;;5058582;28;20029;-84
2021/05/03 10:56:09;;;;;;;8.68;4.70;;;;;;;;;;5067808;28;20098;-85
2021/05/03 10:58:53;;;;;;;8.80;4.15;;;;;;;;;;5051823;28;20519;-85
2021/05/03 11:01:18;;;;;;;7.97;3.53;;;;;;;;;;5047336;28;20053;-84
2021/05/03 11:03:59;;;;;;;11.55;4.45;;;;;;;;;;5071111;28;20079;-84
2021/05/03 11:06:36;;;;;;;6.22;4.07;;;;;;;;;;5051714;28;20111;-85
2021/05/03 11:09:20;;;;;;;9.63;4.47;;;;;;;;;;5052358;28;20488;-84
2021/05/03 11:11:45;;;;;;;8.70;3.97;;;;;;;;;;5040259;28;20031;-84
2021/05/03 11:14:13;;;;;;;9.30;4.03;;;;;;;;;;5053585;28;20028;-83
2021/05/03 11:16:48;;;;;;;9.15;4.47;;;;;;;;;;5073185;28;20032;-83
2021/05/03 11:19:36;;;;;;;8.13;4.20;;;;;;;;;;5053485;28;20119;-84
2021/05/03 11:22:03;;;;;;;12.60;5.25;;;;;;;;;;5051014;28;20119;-83
2021/05/03 11:24:43;;;;;;;7.28;3.65;;;;;;;;;;5070783;28;20502;-84
2021/05/03 11:29:44;;;;;;;7.82;4.43;;;;;;;;;;5070857;28;20036;-84
2021/05/03 11:32:09;;;;;;;12.27;4.22;;;;;;;;;;5054872;28;20040;-84
2021/05/03 11:34:44;;;;;;;6.43;3.60;;;;;;;;;;5082934;28;21287;-85
2021/05/03 11:37:14;;;;;;;7.05;4.47;;;;;;;;;;5066655;28;20035;-85
2021/05/03 11:39:56;;;;;;;8.40;4.97;;;;;;;;;;5082288;28;20024;-84
2021/05/03 11:44:50;;;;;;;7.25;4.15;;;;;;;;;;5080533;28;20048;-85
2021/05/03 11:47:16;;;;;;;7.82;3.13;;;;;;;;;;5054220;28;20021;-84
2021/05/03 11:49:42;;;;;;;7.20;4.63;;;;;;;;;;5057337;28;20040;-84
2021/05/03 11:52:08;;;;;;;5.97;3.65;;;;;;;;;;5055065;28;20634;-85
2021/05/03 11:54:40;;;;;;;15.50;4.05;;;;;;;;;;5052050;28;20020;-85
2021/05/03 11:57:16;;;;;;;6.78;4.20;;;;;;;;;;5043758;28;20020;-85
2021/05/03 11:59:41;;;;;;;8.55;4.68;;;;;;;;;;5047620;28;20035;-84
2021/05/03 12:02:10;;;;;;;8.68;5.25;;;;;;;;;;5044720;28;20025;-85
2021/05/03 12:04:35;;;;;;;11.57;5.13;;;;;;;;;;5052080;28;20056;-86
2021/05/03 12:07:11;;;;;;;12.20;5.95;;;;;;;;;;5067553;28;20793;-85
2021/05/03 12:09:36;;;;;;;13.63;5.50;;;;;;;;;;5052388;28;20021;-87
2021/05/03 12:12:03;;;;;;;9.15;5.35;;;;;;;;;;5052624;28;20115;-84
2021/05/03 12:14:38;;;;;;;6.70;4.50;;;;;;;;;;5051902;28;20021;-85
2021/05/03 12:17:13;;;;;;;7.82;3.92;;;;;;;;;;5052242;28;20016;-85
2021/05/03 12:19:38;;;;;;;5.82;3.50;;;;;;;;;;5068942;28;20103;-85
2021/05/03 12:22:03;;;;;;;5.50;2.33;;;;;;;;;;5051014;28;20107;-85
2021/05/03 12:24:33;;;;;;;8.00;2.63;;;;;;;;;;5078908;28;20025;-84
2021/05/03 12:26:59;;;;;;;;;;;;;;;;;;5045646;28;20697;-86
2021/05/03 12:29:24;;;;;;;;;;;;;;;;;;5057457;28;19915;-85
2021/05/03 12:31:49;;;;;;;;;;;;;;;;;;5077034;28;19915;-86
2021/05/03 12:34:19;;;;;;;;;;;;;;;;;;5053147;28;19912;-85
2021/05/03 12:36:44;;;;;;;;;;;;;;;;;;5070360;28;20005;-85
2021/05/03 12:39:09;;;;;;;;;;;;;;;;;;5052317;28;19946;-85
2021/05/03 12:41:34;;;;;;;;;;;;;;;;;;5054231;28;19998;-86
2021/05/03 12:44:02;;;;;;;;;;;;;;;;;;5040594;28;19919;-86
2021/05/03 12:46:30;;;;;;;;;;;;;;;;;;5068034;28;20330;-84
2021/05/03 12:49:02;;;;;;;;;;;;;;;;;;5049734;28;19997;-86
2021/05/03 12:56:39;;;;;;;;;;;;;;;;;;5085090;28;19909;-85
2021/05/03 13:06:42;;;;;;;;;;;;;;;;;;5069834;28;19909;-85
2021/05/03 13:09:26;;;;;;;;;;;;;;;;;;5052341;28;19915;-86
2021/05/03 13:22:45;;;;;;;;;;;;;;;;;;5068447;28;19930;-86
2021/05/03 13:25:19;;;;;;;;;;;;;;;;;;5070735;28;19916;-85
2021/05/03 13:30:41;;;;;;;;;;;;;;;;;;5004211;28;19909;-86
2021/05/03 13:33:06;;;;;;;;;;;;;;;;;;5051537;28;20003;-85
2021/05/03 13:35:31;;;;;;;;;;;;;;;;;;5051268;28;19961;-85
2021/05/03 13:37:57;;;;;;;;;;;;;;;;;;5050664;28;20162;-85
2021/05/03 13:40:22;;;;;;;;;;;;;;;;;;5051192;28;20292;-85
2021/05/03 13:42:49;;;;;;;;;;;;;;;;;;5040274;28;19908;-85
2021/05/03 13:45:14;;;;;;;;;;;;;;;;;;5050531;28;19971;-85
2021/05/03 13:47:39;;;;;;;;;;;;;;;;;;5053266;28;20391;-87
2021/05/03 13:50:04;;;;;;;;;;;;;;;;;;5078405;22;20105;-64
2021/05/03 13:52:29;;;;;;;;;;;;;;;;;;5067614;28;20149;-64
2021/05/03 13:54:54;;;;;;;;;;;;;;;;;;5072928;28;20089;-63
2021/05/03 13:57:21;;;;;;;;;;;;;;;;;;5060761;28;20042;-63
2021/05/03 13:59:46;;;;;;;;;;;;;;;;;;5071462;28;19915;-63
2021/05/03 14:02:11;;;;;;;;;;;;;;;;;;5063855;28;19912;-63
2021/05/03 14:04:36;;;;;;;;;;;;;;;;;;5072942;28;19944;-63
2021/05/03 14:07:01;;;;;;;;;;;;;;;;;;5070658;28;20020;-63
2021/05/03 14:09:26;;;;;;;;;;;;;;;;;;5063688;28;19909;-63
2021/05/03 14:11:52;;;;;;;;;;;;;;;;;;5066911;28;19912;-63
2021/05/03 14:14:17;;;;;;;;;;;;;;;;;;5059774;28;19912;-63
2021/05/03 14:16:42;;;;;;;;;;;;;;;;;;5072492;28;20426;-63
2021/05/03 14:19:15;;;;;;;;;;;;;;;;;;5066711;28;19998;-64
2021/05/03 14:21:41;;;;;;;;;;;;;;;;;;5072906;28;20310;-63
2021/05/03 14:24:06;;;;;;;;;;;;;;;;;;5073282;28;20334;-63
2021/05/03 14:26:32;;;;;;;;;;;;;;;;;;5049625;28;20357;-63
2021/05/03 14:29:07;;;;;;;;;;;;;;;;;;5067743;28;19935;-64
2021/05/03 14:31:41;;;;;;;;;;;;;;;;;;5072923;28;20291;-64
2021/05/03 14:36:32;;;;;;;;;;;;;;;;;;5070531;28;19937;-63
2021/05/03 14:38:57;;;;;;;;;;;;;;;;;;5071133;28;19908;-63
2021/05/03 14:41:22;;;;;;;;;;;;;;;;;;5072829;28;19958;-63
2021/05/03 14:43:47;;;;;;;;;;;;;;;;;;5068283;28;19962;-64
2021/05/03 14:46:17;;;;;;;;;;;;;;;;;;5072692;28;19904;-63
2021/05/03 14:49:21;;;;;;;;;;;;;;;;;;5071472;28;19912;-63
2021/05/03 14:51:41;;;;;;;;;;;;;;;;;;5066334;28;20041;-63
2021/05/03 14:54:14;;;;;;;;;;;;;;;;;;5072390;28;20368;-63
2021/05/03 14:56:39;;;;;;;;;;;;;;;;;;5072157;28;19916;-63
2021/05/03 14:59:04;;;;;;;;;;;;;;;;;;5071293;28;19913;-63
2021/05/03 15:01:29;;;;;;;;;;;;;;;;;;5070670;28;20041;-63
2021/05/03 15:03:55;;;;;;;;;;;;;;;;;;5064833;28;19921;-63
2021/05/03 15:06:22;;;;;;;;;;;;;;;;;;5070547;28;19978;-63
2021/05/03 15:08:47;;;;;;;;;;;;;;;;;;5072226;28;20273;-63
2021/05/03 15:11:12;;;;;;;;;;;;;;;;;;5072368;28;19909;-63
2021/05/03 15:14:25;;;;;;;;;;;;;;;;;;5071859;28;19908;-63
2021/05/03 15:22:08;;;;;;;;;;;;;;;;;;5017084;28;20403;-63
2021/05/03 15:24:34;;;;;;;;;;;;;;;;;;5055686;28;20316;-63
2021/05/03 15:27:45;;;;;;;;;;;;;;;;;;5061575;28;20419;-63
2021/05/03 15:35:11;;;;;;;;;;;;;;;;;;5066232;28;19919;-63
2021/05/03 15:37:36;;;;;;;;;;;;;;;;;;5060118;28;19916;-63
2021/05/03 15:40:02;;;;;;;;;;;;;;;;;;5060457;28;19916;-63
2021/05/03 15:42:28;;;;;;;;;;;;;;;;;;5061169;28;19930;-64
2021/05/03 15:44:54;;;;;;;;;;;;;;;;;;5058788;28;20421;-63
2021/05/03 15:47:19;;;;;;;;;;;;;;;;;;5066849;28;19908;-63
2021/05/03 15:49:44;;;;;;;;;;;;;;;;;;5063228;28;20379;-63
2021/05/03 15:52:10;;;;;;;;;;;;;;;;;;5062619;28;19944;-63
2021/05/03 15:54:35;;;;;;;;;;;;;;;;;;5069307;28;19908;-63
2021/05/03 15:57:00;;;;;;;;;;;;;;;;;;5063380;28;20444;-63
2021/05/03 15:59:25;;;;;;;;;;;;;;;;;;5060823;28;19946;-63
2021/05/03 16:01:51;;;;;;;;;;;;;;;;;;5059473;28;19948;-63
2021/05/03 16:04:16;;;;;;;;;;;;;;;;;;5061207;28;20432;-63